sensor_id;sensor_type;location;lat;lon;timestamp;P1;durP1;ratioP1;P2;durP2;ratioP2
14007;SDS011;61651;45.508;12.232;2023-05-16T00:02:06;2.25;;;1.15;;
14007;SDS011;61651;45.508;12.232;2023-05-16T00:05:09;1.10;;;1.10;;
14007;SDS011;61651;45.508;12.232;2023-05-16T00:08:15;1.27;;;1.17;;
14007;SDS011;61651;45.508;12.232;2023-05-16T00:11:17;1.83;;;1.20;;
14007;SDS011;61651;45.508;12.232;2023-05-16T00:14:20;1.10;;;1.10;;
14007;SDS011;61651;45.508;12.232;2023-05-16T00:17:25;1.00;;;1.00;;
14007;SDS011;61651;45.508;12.232;2023-05-16T00:20:28;0.90;;;0.90;;
14007;SDS011;61651;45.508;12.232;2023-05-16T00:23:32;4.00;;;1.10;;
14007;SDS011;61651;45.508;12.232;2023-05-16T00:26:34;1.10;;;1.08;;
14007;SDS011;61651;45.508;12.232;2023-05-16T00:29:36;1.52;;;1.42;;
14007;SDS011;61651;45.508;12.232;2023-05-16T00:32:38;1.60;;;1.50;;
14007;SDS011;61651;45.508;12.232;2023-05-16T00:35:40;2.40;;;1.30;;
14007;SDS011;61651;45.508;12.232;2023-05-16T00:38:44;1.20;;;1.10;;
14007;SDS011;61651;45.508;12.232;2023-05-16T00:41:46;1.55;;;1.10;;
14007;SDS011;61651;45.508;12.232;2023-05-16T00:44:48;1.38;;;1.17;;
14007;SDS011;61651;45.508;12.232;2023-05-16T00:47:50;1.00;;;1.00;;
14007;SDS011;61651;45.508;12.232;2023-05-16T00:50:52;1.10;;;1.00;;
14007;SDS011;61651;45.508;12.232;2023-05-16T00:53:56;1.33;;;1.10;;
14007;SDS011;61651;45.508;12.232;2023-05-16T00:56:58;1.90;;;1.25;;
14007;SDS011;61651;45.508;12.232;2023-05-16T01:00:01;1.88;;;1.15;;
14007;SDS011;61651;45.508;12.232;2023-05-16T01:03:04;1.00;;;1.00;;
14007;SDS011;61651;45.508;12.232;2023-05-16T01:06:06;1.20;;;1.10;;
14007;SDS011;61651;45.508;12.232;2023-05-16T01:09:10;1.27;;;1.20;;
14007;SDS011;61651;45.508;12.232;2023-05-16T01:12:13;1.13;;;1.13;;
14007;SDS011;61651;45.508;12.232;2023-05-16T01:15:23;0.90;;;0.90;;
14007;SDS011;61651;45.508;12.232;2023-05-16T01:18:29;1.02;;;1.02;;
14007;SDS011;61651;45.508;12.232;2023-05-16T01:21:40;2.67;;;1.30;;
14007;SDS011;61651;45.508;12.232;2023-05-16T01:24:54;1.85;;;1.20;;
14007;SDS011;61651;45.508;12.232;2023-05-16T01:28:06;1.10;;;1.10;;
14007;SDS011;61651;45.508;12.232;2023-05-16T01:31:09;1.23;;;1.13;;
14007;SDS011;61651;45.508;12.232;2023-05-16T05:05:03;2.38;;;1.48;;
14007;SDS011;61651;45.508;12.232;2023-05-16T05:08:06;1.48;;;1.38;;
14007;SDS011;61651;45.508;12.232;2023-05-16T05:11:08;1.63;;;1.48;;
14007;SDS011;61651;45.508;12.232;2023-05-16T05:14:10;1.67;;;1.58;;
14007;SDS011;61651;45.508;12.232;2023-05-16T05:17:12;2.08;;;1.70;;
14007;SDS011;61651;45.508;12.232;2023-05-16T05:20:17;2.17;;;1.60;;
14007;SDS011;61651;45.508;12.232;2023-05-16T05:23:19;1.80;;;1.70;;
14007;SDS011;61651;45.508;12.232;2023-05-16T05:26:21;1.77;;;1.67;;
14007;SDS011;61651;45.508;12.232;2023-05-16T05:29:24;1.77;;;1.55;;
14007;SDS011;61651;45.508;12.232;2023-05-16T05:32:26;1.80;;;1.70;;
14007;SDS011;61651;45.508;12.232;2023-05-16T05:35:30;1.75;;;1.65;;
14007;SDS011;61651;45.508;12.232;2023-05-16T05:38:31;2.35;;;1.75;;
14007;SDS011;61651;45.508;12.232;2023-05-16T05:41:34;2.75;;;1.80;;
14007;SDS011;61651;45.508;12.232;2023-05-16T05:44:36;2.15;;;2.05;;
14007;SDS011;61651;45.508;12.232;2023-05-16T05:47:38;2.92;;;1.95;;
14007;SDS011;61651;45.508;12.232;2023-05-16T05:50:42;2.75;;;1.55;;
14007;SDS011;61651;45.508;12.232;2023-05-16T05:53:43;1.60;;;1.50;;
14007;SDS011;61651;45.508;12.232;2023-05-16T05:56:46;1.38;;;1.27;;
14007;SDS011;61651;45.508;12.232;2023-05-16T05:59:48;1.45;;;1.35;;
14007;SDS011;61651;45.508;12.232;2023-05-16T06:02:50;2.00;;;1.42;;
14007;SDS011;61651;45.508;12.232;2023-05-16T06:05:53;1.70;;;1.60;;
14007;SDS011;61651;45.508;12.232;2023-05-16T06:08:55;1.60;;;1.40;;
14007;SDS011;61651;45.508;12.232;2023-05-16T06:11:57;1.83;;;1.60;;
14007;SDS011;61651;45.508;12.232;2023-05-16T06:14:59;2.97;;;1.50;;
14007;SDS011;61651;45.508;12.232;2023-05-16T06:18:01;2.22;;;1.67;;
14007;SDS011;61651;45.508;12.232;2023-05-16T06:21:04;2.30;;;1.90;;
14007;SDS011;61651;45.508;12.232;2023-05-16T06:24:07;1.80;;;1.70;;
14007;SDS011;61651;45.508;12.232;2023-05-16T06:27:10;2.80;;;1.50;;
14007;SDS011;61651;45.508;12.232;2023-05-16T06:30:12;5.15;;;2.15;;
14007;SDS011;61651;45.508;12.232;2023-05-16T06:33:15;1.70;;;1.60;;
14007;SDS011;61651;45.508;12.232;2023-05-16T06:36:18;2.00;;;1.88;;
14007;SDS011;61651;45.508;12.232;2023-05-16T06:39:20;3.28;;;1.80;;
14007;SDS011;61651;45.508;12.232;2023-05-16T06:42:22;1.55;;;1.45;;
14007;SDS011;61651;45.508;12.232;2023-05-16T06:45:24;4.18;;;1.88;;
14007;SDS011;61651;45.508;12.232;2023-05-16T06:48:26;2.03;;;1.92;;
14007;SDS011;61651;45.508;12.232;2023-05-16T06:51:30;2.30;;;2.00;;
14007;SDS011;61651;45.508;12.232;2023-05-16T06:54:32;1.70;;;1.60;;
14007;SDS011;61651;45.508;12.232;2023-05-16T06:57:34;2.22;;;1.73;;
14007;SDS011;61651;45.508;12.232;2023-05-16T07:00:36;3.22;;;1.63;;
14007;SDS011;61651;45.508;12.232;2023-05-16T07:03:38;1.90;;;1.73;;
14007;SDS011;61651;45.508;12.232;2023-05-16T07:06:41;2.10;;;1.90;;
14007;SDS011;61651;45.508;12.232;2023-05-16T07:09:43;2.22;;;2.03;;
14007;SDS011;61651;45.508;12.232;2023-05-16T07:12:45;1.85;;;1.75;;
14007;SDS011;61651;45.508;12.232;2023-05-16T07:15:47;2.10;;;1.48;;
14007;SDS011;61651;45.508;12.232;2023-05-16T07:18:49;3.10;;;1.65;;
14007;SDS011;61651;45.508;12.232;2023-05-16T07:21:53;1.67;;;1.58;;
14007;SDS011;61651;45.508;12.232;2023-05-16T07:24:55;1.80;;;1.70;;
14007;SDS011;61651;45.508;12.232;2023-05-16T07:27:59;3.75;;;2.00;;
14007;SDS011;61651;45.508;12.232;2023-05-16T07:31:02;2.13;;;1.55;;
14007;SDS011;61651;45.508;12.232;2023-05-16T07:34:05;1.80;;;1.70;;
14007;SDS011;61651;45.508;12.232;2023-05-16T07:37:09;3.75;;;2.00;;
14007;SDS011;61651;45.508;12.232;2023-05-16T07:40:12;3.38;;;2.00;;
14007;SDS011;61651;45.508;12.232;2023-05-16T07:43:14;3.13;;;1.50;;
14007;SDS011;61651;45.508;12.232;2023-05-16T07:46:17;2.88;;;1.85;;
14007;SDS011;61651;45.508;12.232;2023-05-16T07:49:18;2.22;;;1.85;;
14007;SDS011;61651;45.508;12.232;2023-05-16T07:52:22;1.92;;;1.83;;
14007;SDS011;61651;45.508;12.232;2023-05-16T07:55:24;3.17;;;2.35;;
14007;SDS011;61651;45.508;12.232;2023-05-16T07:58:26;2.28;;;2.08;;
14007;SDS011;61651;45.508;12.232;2023-05-16T08:01:28;2.08;;;1.73;;
14007;SDS011;61651;45.508;12.232;2023-05-16T08:04:30;3.22;;;2.05;;
14007;SDS011;61651;45.508;12.232;2023-05-16T08:07:34;2.22;;;2.03;;
14007;SDS011;61651;45.508;12.232;2023-05-16T08:10:36;2.13;;;1.92;;
14007;SDS011;61651;45.508;12.232;2023-05-16T08:13:38;5.22;;;1.85;;
14007;SDS011;61651;45.508;12.232;2023-05-16T08:16:40;2.90;;;1.90;;
14007;SDS011;61651;45.508;12.232;2023-05-16T08:19:42;2.75;;;2.00;;
14007;SDS011;61651;45.508;12.232;2023-05-16T08:22:45;2.85;;;2.05;;
14007;SDS011;61651;45.508;12.232;2023-05-16T08:25:47;3.50;;;1.88;;
14007;SDS011;61651;45.508;12.232;2023-05-16T08:28:49;2.83;;;2.53;;
14007;SDS011;61651;45.508;12.232;2023-05-16T08:31:51;3.15;;;2.53;;
14007;SDS011;61651;45.508;12.232;2023-05-16T08:34:53;3.58;;;1.80;;
14007;SDS011;61651;45.508;12.232;2023-05-16T08:37:57;2.40;;;2.20;;
14007;SDS011;61651;45.508;12.232;2023-05-16T08:40:59;4.45;;;2.20;;
14007;SDS011;61651;45.508;12.232;2023-05-16T08:44:01;2.10;;;1.90;;
14007;SDS011;61651;45.508;12.232;2023-05-16T08:47:06;3.75;;;2.00;;
14007;SDS011;61651;45.508;12.232;2023-05-16T08:50:12;1.85;;;1.65;;
14007;SDS011;61651;45.508;12.232;2023-05-16T08:53:18;1.63;;;1.52;;
14007;SDS011;61651;45.508;12.232;2023-05-16T08:56:23;2.10;;;1.80;;
14007;SDS011;61651;45.508;12.232;2023-05-16T08:59:26;2.08;;;1.90;;
14007;SDS011;61651;45.508;12.232;2023-05-16T09:02:28;1.75;;;1.65;;
14007;SDS011;61651;45.508;12.232;2023-05-16T09:05:30;1.70;;;1.60;;
14007;SDS011;61651;45.508;12.232;2023-05-16T09:08:34;1.70;;;1.60;;
14007;SDS011;61651;45.508;12.232;2023-05-16T09:11:37;1.70;;;1.60;;
14007;SDS011;61651;45.508;12.232;2023-05-16T09:14:40;3.08;;;1.40;;
14007;SDS011;61651;45.508;12.232;2023-05-16T09:17:43;5.22;;;1.50;;
14007;SDS011;61651;45.508;12.232;2023-05-16T09:20:46;1.75;;;1.50;;
14007;SDS011;61651;45.508;12.232;2023-05-16T09:23:50;2.05;;;1.63;;
14007;SDS011;61651;45.508;12.232;2023-05-16T09:26:53;3.22;;;1.50;;
14007;SDS011;61651;45.508;12.232;2023-05-16T09:29:56;1.10;;;1.10;;
14007;SDS011;61651;45.508;12.232;2023-05-16T09:32:58;1.40;;;1.10;;
14007;SDS011;61651;45.508;12.232;2023-05-16T09:36:01;0.90;;;0.90;;
14007;SDS011;61651;45.508;12.232;2023-05-16T09:39:05;1.05;;;1.05;;
14007;SDS011;61651;45.508;12.232;2023-05-16T09:42:09;1.27;;;1.17;;
14007;SDS011;61651;45.508;12.232;2023-05-16T09:45:12;1.30;;;1.20;;
14007;SDS011;61651;45.508;12.232;2023-05-16T09:48:15;1.48;;;1.10;;
14007;SDS011;61651;45.508;12.232;2023-05-16T09:51:20;1.23;;;1.10;;
14007;SDS011;61651;45.508;12.232;2023-05-16T09:54:31;1.10;;;1.00;;
14007;SDS011;61651;45.508;12.232;2023-05-16T09:57:35;0.80;;;0.80;;
14007;SDS011;61651;45.508;12.232;2023-05-16T10:00:38;1.98;;;0.98;;
14007;SDS011;61651;45.508;12.232;2023-05-16T10:03:41;2.70;;;1.00;;
14007;SDS011;61651;45.508;12.232;2023-05-16T10:06:43;1.08;;;0.98;;
14007;SDS011;61651;45.508;12.232;2023-05-16T10:09:48;2.05;;;1.00;;
14007;SDS011;61651;45.508;12.232;2023-05-16T10:12:53;2.08;;;0.90;;
14007;SDS011;61651;45.508;12.232;2023-05-16T10:15:58;1.60;;;0.90;;
14007;SDS011;61651;45.508;12.232;2023-05-16T10:19:02;0.88;;;0.88;;
14007;SDS011;61651;45.508;12.232;2023-05-16T10:22:05;0.93;;;0.93;;
14007;SDS011;61651;45.508;12.232;2023-05-16T10:25:11;1.30;;;0.90;;
14007;SDS011;61651;45.508;12.232;2023-05-16T10:28:17;1.27;;;1.10;;
14007;SDS011;61651;45.508;12.232;2023-05-16T10:31:19;0.88;;;0.88;;
14007;SDS011;61651;45.508;12.232;2023-05-16T10:34:23;2.05;;;0.80;;
14007;SDS011;61651;45.508;12.232;2023-05-16T10:37:26;1.00;;;1.00;;
14007;SDS011;61651;45.508;12.232;2023-05-16T10:40:29;1.20;;;1.15;;
14007;SDS011;61651;45.508;12.232;2023-05-16T10:43:32;0.80;;;0.80;;
14007;SDS011;61651;45.508;12.232;2023-05-16T10:46:34;0.70;;;0.70;;
14007;SDS011;61651;45.508;12.232;2023-05-16T10:49:39;1.85;;;0.95;;
14007;SDS011;61651;45.508;12.232;2023-05-16T10:52:41;1.25;;;0.95;;
14007;SDS011;61651;45.508;12.232;2023-05-16T10:55:45;1.13;;;0.90;;
14007;SDS011;61651;45.508;12.232;2023-05-16T10:58:51;0.80;;;0.80;;
14007;SDS011;61651;45.508;12.232;2023-05-16T11:01:55;1.00;;;0.93;;
14007;SDS011;61651;45.508;12.232;2023-05-16T11:04:58;0.88;;;0.88;;
14007;SDS011;61651;45.508;12.232;2023-05-16T11:08:01;0.80;;;0.80;;
14007;SDS011;61651;45.508;12.232;2023-05-16T11:14:43;0.70;;;0.70;;
14007;SDS011;61651;45.508;12.232;2023-05-16T11:17:50;1.08;;;0.80;;
14007;SDS011;61651;45.508;12.232;2023-05-16T11:21:04;0.70;;;0.70;;
14007;SDS011;61651;45.508;12.232;2023-05-16T11:27:33;0.68;;;0.68;;
14007;SDS011;61651;45.508;12.232;2023-05-16T11:30:35;1.98;;;1.08;;
14007;SDS011;61651;45.508;12.232;2023-05-16T11:33:46;0.90;;;0.80;;
14007;SDS011;61651;45.508;12.232;2023-05-16T11:36:48;0.80;;;0.80;;
14007;SDS011;61651;45.508;12.232;2023-05-16T11:39:50;5.53;;;0.90;;
14007;SDS011;61651;45.508;12.232;2023-05-16T11:42:54;0.80;;;0.80;;
14007;SDS011;61651;45.508;12.232;2023-05-16T11:46:02;0.80;;;0.80;;
14007;SDS011;61651;45.508;12.232;2023-05-16T11:49:04;0.95;;;0.95;;
14007;SDS011;61651;45.508;12.232;2023-05-16T11:52:06;4.10;;;1.88;;
14007;SDS011;61651;45.508;12.232;2023-05-16T11:55:09;0.90;;;0.90;;
14007;SDS011;61651;45.508;12.232;2023-05-16T11:58:13;4.13;;;1.00;;
14007;SDS011;61651;45.508;12.232;2023-05-16T12:01:16;2.60;;;0.90;;
14007;SDS011;61651;45.508;12.232;2023-05-16T12:04:18;0.82;;;0.82;;
14007;SDS011;61651;45.508;12.232;2023-05-16T12:07:26;3.00;;;0.90;;
14007;SDS011;61651;45.508;12.232;2023-05-16T12:10:30;0.60;;;0.60;;
14007;SDS011;61651;45.508;12.232;2023-05-16T12:13:34;0.80;;;0.80;;
14007;SDS011;61651;45.508;12.232;2023-05-16T12:16:37;1.38;;;0.80;;
14007;SDS011;61651;45.508;12.232;2023-05-16T12:19:41;0.80;;;0.80;;
14007;SDS011;61651;45.508;12.232;2023-05-16T12:22:45;2.00;;;0.65;;
14007;SDS011;61651;45.508;12.232;2023-05-16T12:25:47;0.80;;;0.80;;
14007;SDS011;61651;45.508;12.232;2023-05-16T12:28:53;1.00;;;0.90;;
14007;SDS011;61651;45.508;12.232;2023-05-16T12:31:59;1.25;;;0.73;;
14007;SDS011;61651;45.508;12.232;2023-05-16T12:35:01;0.70;;;0.70;;
14007;SDS011;61651;45.508;12.232;2023-05-16T12:38:04;0.77;;;0.77;;
14007;SDS011;61651;45.508;12.232;2023-05-16T12:41:06;3.35;;;0.80;;
14007;SDS011;61651;45.508;12.232;2023-05-16T12:44:14;1.55;;;0.95;;
14007;SDS011;61651;45.508;12.232;2023-05-16T12:47:18;0.70;;;0.70;;
14007;SDS011;61651;45.508;12.232;2023-05-16T12:50:20;0.85;;;0.85;;
14007;SDS011;61651;45.508;12.232;2023-05-16T12:53:22;0.60;;;0.60;;
14007;SDS011;61651;45.508;12.232;2023-05-16T12:56:24;1.95;;;0.80;;
14007;SDS011;61651;45.508;12.232;2023-05-16T12:59:27;0.90;;;0.90;;
14007;SDS011;61651;45.508;12.232;2023-05-16T13:02:30;0.73;;;0.70;;
14007;SDS011;61651;45.508;12.232;2023-05-16T13:05:32;0.70;;;0.70;;
14007;SDS011;61651;45.508;12.232;2023-05-16T13:08:35;0.65;;;0.65;;
14007;SDS011;61651;45.508;12.232;2023-05-16T13:11:37;0.65;;;0.65;;
14007;SDS011;61651;45.508;12.232;2023-05-16T13:14:41;0.80;;;0.80;;
14007;SDS011;61651;45.508;12.232;2023-05-16T13:17:43;1.55;;;0.75;;
14007;SDS011;61651;45.508;12.232;2023-05-16T13:20:45;1.15;;;0.90;;
14007;SDS011;61651;45.508;12.232;2023-05-16T13:23:47;0.70;;;0.70;;
14007;SDS011;61651;45.508;12.232;2023-05-16T13:26:49;0.77;;;0.77;;
14007;SDS011;61651;45.508;12.232;2023-05-16T13:29:52;1.33;;;0.80;;
14007;SDS011;61651;45.508;12.232;2023-05-16T13:32:54;0.80;;;0.80;;
14007;SDS011;61651;45.508;12.232;2023-05-16T13:35:57;0.93;;;0.60;;
14007;SDS011;61651;45.508;12.232;2023-05-16T13:38:59;0.73;;;0.73;;
14007;SDS011;61651;45.508;12.232;2023-05-16T13:42:02;4.40;;;0.80;;
14007;SDS011;61651;45.508;12.232;2023-05-16T13:45:06;0.77;;;0.77;;
14007;SDS011;61651;45.508;12.232;2023-05-16T13:48:09;0.77;;;0.77;;
14007;SDS011;61651;45.508;12.232;2023-05-16T13:51:11;0.60;;;0.60;;
14007;SDS011;61651;45.508;12.232;2023-05-16T13:54:13;0.70;;;0.70;;
14007;SDS011;61651;45.508;12.232;2023-05-16T13:57:15;1.33;;;0.70;;
14007;SDS011;61651;45.508;12.232;2023-05-16T14:00:19;2.35;;;0.90;;
14007;SDS011;61651;45.508;12.232;2023-05-16T14:03:21;1.23;;;1.00;;
14007;SDS011;61651;45.508;12.232;2023-05-16T14:06:22;0.63;;;0.63;;
14007;SDS011;61651;45.508;12.232;2023-05-16T14:09:24;0.80;;;0.80;;
14007;SDS011;61651;45.508;12.232;2023-05-16T14:12:26;0.65;;;0.65;;
14007;SDS011;61651;45.508;12.232;2023-05-16T14:15:30;0.85;;;0.85;;
14007;SDS011;61651;45.508;12.232;2023-05-16T14:18:32;0.70;;;0.70;;
14007;SDS011;61651;45.508;12.232;2023-05-16T14:21:34;0.95;;;0.70;;
14007;SDS011;61651;45.508;12.232;2023-05-16T14:24:36;0.60;;;0.60;;
14007;SDS011;61651;45.508;12.232;2023-05-16T14:27:38;1.80;;;0.80;;
14007;SDS011;61651;45.508;12.232;2023-05-16T14:30:41;1.40;;;1.30;;
14007;SDS011;61651;45.508;12.232;2023-05-16T14:33:43;1.85;;;1.63;;
14007;SDS011;61651;45.508;12.232;2023-05-16T14:36:45;1.20;;;1.10;;
14007;SDS011;61651;45.508;12.232;2023-05-16T14:39:47;2.90;;;1.65;;
14007;SDS011;61651;45.508;12.232;2023-05-16T14:42:49;4.45;;;1.10;;
14007;SDS011;61651;45.508;12.232;2023-05-16T14:45:53;0.95;;;0.95;;
14007;SDS011;61651;45.508;12.232;2023-05-16T14:48:55;1.23;;;0.95;;
14007;SDS011;61651;45.508;12.232;2023-05-16T14:51:57;0.77;;;0.77;;
14007;SDS011;61651;45.508;12.232;2023-05-16T14:54:59;0.70;;;0.70;;
14007;SDS011;61651;45.508;12.232;2023-05-16T14:58:01;2.05;;;1.02;;
14007;SDS011;61651;45.508;12.232;2023-05-16T15:01:05;0.80;;;0.80;;
14007;SDS011;61651;45.508;12.232;2023-05-16T15:04:06;0.80;;;0.80;;
14007;SDS011;61651;45.508;12.232;2023-05-16T15:07:08;1.20;;;1.10;;
14007;SDS011;61651;45.508;12.232;2023-05-16T15:10:10;1.30;;;1.20;;
14007;SDS011;61651;45.508;12.232;2023-05-16T15:13:13;1.60;;;1.40;;
14007;SDS011;61651;45.508;12.232;2023-05-16T15:16:16;1.45;;;1.35;;
14007;SDS011;61651;45.508;12.232;2023-05-16T15:19:18;1.42;;;1.33;;
14007;SDS011;61651;45.508;12.232;2023-05-16T15:22:20;1.48;;;1.20;;
14007;SDS011;61651;45.508;12.232;2023-05-16T15:25:22;1.20;;;1.15;;
14007;SDS011;61651;45.508;12.232;2023-05-16T15:28:24;1.50;;;1.35;;
14007;SDS011;61651;45.508;12.232;2023-05-16T15:31:28;1.73;;;1.50;;
14007;SDS011;61651;45.508;12.232;2023-05-16T15:34:32;2.47;;;1.73;;
14007;SDS011;61651;45.508;12.232;2023-05-16T15:37:34;1.40;;;1.20;;
14007;SDS011;61651;45.508;12.232;2023-05-16T15:40:36;1.23;;;1.20;;
14007;SDS011;61651;45.508;12.232;2023-05-16T15:43:39;2.28;;;1.40;;
14007;SDS011;61651;45.508;12.232;2023-05-16T15:46:42;3.85;;;1.38;;
14007;SDS011;61651;45.508;12.232;2023-05-16T15:49:44;1.58;;;1.48;;
14007;SDS011;61651;45.508;12.232;2023-05-16T15:52:46;1.40;;;1.25;;
14007;SDS011;61651;45.508;12.232;2023-05-16T15:55:48;1.33;;;1.20;;
14007;SDS011;61651;45.508;12.232;2023-05-16T15:58:50;2.38;;;1.40;;
14007;SDS011;61651;45.508;12.232;2023-05-16T16:01:54;1.30;;;1.20;;
14007;SDS011;61651;45.508;12.232;2023-05-16T16:04:56;3.13;;;1.77;;
14007;SDS011;61651;45.508;12.232;2023-05-16T16:07:58;1.75;;;1.40;;
14007;SDS011;61651;45.508;12.232;2023-05-16T16:11:00;2.50;;;1.55;;
14007;SDS011;61651;45.508;12.232;2023-05-16T16:14:02;1.38;;;1.27;;
14007;SDS011;61651;45.508;12.232;2023-05-16T16:17:06;1.30;;;1.20;;
14007;SDS011;61651;45.508;12.232;2023-05-16T16:20:08;3.35;;;1.77;;
14007;SDS011;61651;45.508;12.232;2023-05-16T16:23:11;1.60;;;1.50;;
14007;SDS011;61651;45.508;12.232;2023-05-16T16:26:13;2.20;;;1.73;;
14007;SDS011;61651;45.508;12.232;2023-05-16T16:29:16;1.85;;;1.52;;
14007;SDS011;61651;45.508;12.232;2023-05-16T16:32:19;1.40;;;1.30;;
14007;SDS011;61651;45.508;12.232;2023-05-16T16:35:21;2.45;;;1.65;;
14007;SDS011;61651;45.508;12.232;2023-05-16T16:38:24;2.13;;;1.90;;
14007;SDS011;61651;45.508;12.232;2023-05-16T16:41:26;2.80;;;1.95;;
14007;SDS011;61651;45.508;12.232;2023-05-16T16:44:28;3.22;;;2.42;;
14007;SDS011;61651;45.508;12.232;2023-05-16T16:47:32;2.47;;;2.28;;
14007;SDS011;61651;45.508;12.232;2023-05-16T16:50:34;2.13;;;1.92;;
14007;SDS011;61651;45.508;12.232;2023-05-16T16:53:36;3.30;;;2.50;;
14007;SDS011;61651;45.508;12.232;2023-05-16T16:56:40;2.55;;;1.63;;
14007;SDS011;61651;45.508;12.232;2023-05-16T16:59:42;2.15;;;1.40;;
14007;SDS011;61651;45.508;12.232;2023-05-16T17:02:47;2.00;;;1.65;;
14007;SDS011;61651;45.508;12.232;2023-05-16T17:05:49;2.28;;;1.63;;
14007;SDS011;61651;45.508;12.232;2023-05-16T17:08:52;1.15;;;1.05;;
14007;SDS011;61651;45.508;12.232;2023-05-16T17:11:54;2.60;;;1.38;;
14007;SDS011;61651;45.508;12.232;2023-05-16T17:14:56;1.30;;;1.20;;
14007;SDS011;61651;45.508;12.232;2023-05-16T17:17:59;2.17;;;1.80;;
14007;SDS011;61651;45.508;12.232;2023-05-16T17:21:01;1.63;;;1.52;;
14007;SDS011;61651;45.508;12.232;2023-05-16T17:24:04;1.67;;;1.33;;
14007;SDS011;61651;45.508;12.232;2023-05-16T17:27:06;2.33;;;1.25;;
14007;SDS011;61651;45.508;12.232;2023-05-16T17:30:09;1.40;;;1.30;;
14007;SDS011;61651;45.508;12.232;2023-05-16T17:33:13;3.90;;;1.50;;
14007;SDS011;61651;45.508;12.232;2023-05-16T17:36:15;1.80;;;1.60;;
14007;SDS011;61651;45.508;12.232;2023-05-16T17:39:18;1.60;;;1.50;;
14007;SDS011;61651;45.508;12.232;2023-05-16T17:42:20;1.70;;;1.60;;
14007;SDS011;61651;45.508;12.232;2023-05-16T17:45:23;6.25;;;1.98;;
14007;SDS011;61651;45.508;12.232;2023-05-16T17:48:26;3.38;;;1.80;;
14007;SDS011;61651;45.508;12.232;2023-05-16T17:51:28;2.90;;;1.67;;
14007;SDS011;61651;45.508;12.232;2023-05-16T17:54:45;1.63;;;1.52;;
14007;SDS011;61651;45.508;12.232;2023-05-16T17:57:47;1.83;;;1.27;;
14007;SDS011;61651;45.508;12.232;2023-05-16T18:00:49;1.13;;;1.13;;
14007;SDS011;61651;45.508;12.232;2023-05-16T18:03:53;1.55;;;1.40;;
14007;SDS011;61651;45.508;12.232;2023-05-16T18:06:55;2.03;;;1.50;;
14007;SDS011;61651;45.508;12.232;2023-05-16T18:09:57;1.50;;;1.40;;
14007;SDS011;61651;45.508;12.232;2023-05-16T18:12:59;1.98;;;1.40;;
14007;SDS011;61651;45.508;12.232;2023-05-16T18:16:02;1.17;;;1.17;;
14007;SDS011;61651;45.508;12.232;2023-05-16T18:19:05;1.33;;;1.23;;
14007;SDS011;61651;45.508;12.232;2023-05-16T18:22:07;2.47;;;1.48;;
14007;SDS011;61651;45.508;12.232;2023-05-16T18:25:11;1.52;;;1.42;;
14007;SDS011;61651;45.508;12.232;2023-05-16T18:28:13;2.15;;;1.83;;
14007;SDS011;61651;45.508;12.232;2023-05-16T18:31:15;2.60;;;2.10;;
14007;SDS011;61651;45.508;12.232;2023-05-16T18:34:19;5.38;;;4.30;;
14007;SDS011;61651;45.508;12.232;2023-05-16T18:37:21;11.75;;;7.68;;
14007;SDS011;61651;45.508;12.232;2023-05-16T18:40:23;5.40;;;4.38;;
14007;SDS011;61651;45.508;12.232;2023-05-16T18:43:25;3.28;;;2.97;;
14007;SDS011;61651;45.508;12.232;2023-05-16T18:46:27;3.90;;;2.58;;
14007;SDS011;61651;45.508;12.232;2023-05-16T18:49:30;2.33;;;1.75;;
14007;SDS011;61651;45.508;12.232;2023-05-16T18:52:37;2.25;;;2.00;;
14007;SDS011;61651;45.508;12.232;2023-05-16T18:55:40;4.38;;;2.38;;
14007;SDS011;61651;45.508;12.232;2023-05-16T18:58:42;2.63;;;2.42;;
14007;SDS011;61651;45.508;12.232;2023-05-16T19:01:45;3.88;;;2.45;;
14007;SDS011;61651;45.508;12.232;2023-05-16T19:04:48;2.95;;;2.00;;
14007;SDS011;61651;45.508;12.232;2023-05-16T19:07:50;1.92;;;1.83;;
14007;SDS011;61651;45.508;12.232;2023-05-16T19:10:52;1.75;;;1.38;;
14007;SDS011;61651;45.508;12.232;2023-05-16T19:13:55;1.73;;;1.55;;
14007;SDS011;61651;45.508;12.232;2023-05-16T19:16:57;2.67;;;1.33;;
14007;SDS011;61651;45.508;12.232;2023-05-16T19:20:01;1.75;;;1.65;;
14007;SDS011;61651;45.508;12.232;2023-05-16T19:23:04;1.88;;;1.60;;
14007;SDS011;61651;45.508;12.232;2023-05-16T19:26:06;1.73;;;1.63;;
14007;SDS011;61651;45.508;12.232;2023-05-16T19:29:08;1.45;;;1.35;;
14007;SDS011;61651;45.508;12.232;2023-05-16T19:32:10;1.38;;;1.27;;
14007;SDS011;61651;45.508;12.232;2023-05-16T19:35:14;1.75;;;1.38;;
14007;SDS011;61651;45.508;12.232;2023-05-16T19:38:17;1.40;;;1.30;;
14007;SDS011;61651;45.508;12.232;2023-05-16T19:41:21;1.40;;;1.30;;
14007;SDS011;61651;45.508;12.232;2023-05-16T19:44:23;1.83;;;1.50;;
14007;SDS011;61651;45.508;12.232;2023-05-16T19:47:25;3.05;;;1.60;;
14007;SDS011;61651;45.508;12.232;2023-05-16T19:50:29;1.40;;;1.30;;
14007;SDS011;61651;45.508;12.232;2023-05-16T19:53:31;1.50;;;1.40;;
14007;SDS011;61651;45.508;12.232;2023-05-16T19:56:33;1.70;;;1.60;;
14007;SDS011;61651;45.508;12.232;2023-05-16T19:59:35;1.52;;;1.42;;
14007;SDS011;61651;45.508;12.232;2023-05-16T20:02:37;1.42;;;1.33;;
14007;SDS011;61651;45.508;12.232;2023-05-16T20:05:40;1.85;;;1.75;;
14007;SDS011;61651;45.508;12.232;2023-05-16T20:08:42;2.25;;;1.40;;
14007;SDS011;61651;45.508;12.232;2023-05-16T20:11:44;1.88;;;1.77;;
14007;SDS011;61651;45.508;12.232;2023-05-16T20:14:46;1.40;;;1.30;;
14007;SDS011;61651;45.508;12.232;2023-05-16T20:17:48;3.28;;;2.15;;
14007;SDS011;61651;45.508;12.232;2023-05-16T20:20:52;2.03;;;1.83;;
14007;SDS011;61651;45.508;12.232;2023-05-16T20:23:54;1.90;;;1.70;;
14007;SDS011;61651;45.508;12.232;2023-05-16T20:26:55;1.67;;;1.58;;
14007;SDS011;61651;45.508;12.232;2023-05-16T20:29:57;2.22;;;2.03;;
14007;SDS011;61651;45.508;12.232;2023-05-16T20:32:59;2.90;;;1.90;;
14007;SDS011;61651;45.508;12.232;2023-05-16T20:36:03;2.28;;;2.08;;
14007;SDS011;61651;45.508;12.232;2023-05-16T20:39:05;3.17;;;1.70;;
14007;SDS011;61651;45.508;12.232;2023-05-16T20:42:08;2.20;;;2.00;;
14007;SDS011;61651;45.508;12.232;2023-05-16T20:45:10;2.20;;;2.00;;
14007;SDS011;61651;45.508;12.232;2023-05-16T20:48:12;3.25;;;2.50;;
14007;SDS011;61651;45.508;12.232;2023-05-16T20:51:15;4.00;;;2.38;;
14007;SDS011;61651;45.508;12.232;2023-05-16T20:54:17;2.38;;;2.15;;
14007;SDS011;61651;45.508;12.232;2023-05-16T20:57:19;2.47;;;2.28;;
14007;SDS011;61651;45.508;12.232;2023-05-16T21:00:21;3.40;;;2.35;;
14007;SDS011;61651;45.508;12.232;2023-05-16T21:03:23;2.42;;;2.22;;
14007;SDS011;61651;45.508;12.232;2023-05-16T21:06:27;3.63;;;2.90;;
14007;SDS011;61651;45.508;12.232;2023-05-16T21:09:29;4.63;;;2.72;;
14007;SDS011;61651;45.508;12.232;2023-05-16T21:12:32;3.92;;;2.63;;
14007;SDS011;61651;45.508;12.232;2023-05-16T21:15:34;3.40;;;2.55;;
14007;SDS011;61651;45.508;12.232;2023-05-16T21:18:37;3.00;;;2.22;;
14007;SDS011;61651;45.508;12.232;2023-05-16T21:21:40;3.15;;;2.55;;
14007;SDS011;61651;45.508;12.232;2023-05-16T21:24:42;5.35;;;2.20;;
14007;SDS011;61651;45.508;12.232;2023-05-16T21:27:44;4.32;;;3.00;;
14007;SDS011;61651;45.508;12.232;2023-05-16T21:30:46;2.55;;;2.35;;
14007;SDS011;61651;45.508;12.232;2023-05-16T21:33:48;3.17;;;2.80;;
14007;SDS011;61651;45.508;12.232;2023-05-16T21:36:52;5.20;;;2.70;;
14007;SDS011;61651;45.508;12.232;2023-05-16T21:39:54;4.32;;;2.55;;
14007;SDS011;61651;45.508;12.232;2023-05-16T21:42:56;5.03;;;2.58;;